createdAt,value
2018-06-29T00:01:43.162Z,2.22
2018-06-29T00:04:10.215Z,1.90
2018-06-29T00:06:37.268Z,2.10
2018-06-29T00:09:06.198Z,1.60
2018-06-29T00:11:33.297Z,1.40
2018-06-29T00:14:00.355Z,1.90
2018-06-29T00:16:28.211Z,1.30
2018-06-29T00:18:55.228Z,1.25
2018-06-29T00:21:22.339Z,1.10
2018-06-29T00:23:49.374Z,1.25
2018-06-29T00:26:16.430Z,1.30
2018-06-29T00:28:43.464Z,1.40
2018-06-29T00:31:10.583Z,1.22
2018-06-29T00:33:37.626Z,1.90
2018-06-29T00:36:04.710Z,1.90
2018-06-29T00:38:31.701Z,1.35
2018-06-29T00:40:58.798Z,1.82
2018-06-29T00:43:25.840Z,1.17
2018-06-29T00:45:52.866Z,1.62
2018-06-29T00:48:19.906Z,1.57
2018-06-29T00:50:46.968Z,1.77
2018-06-29T00:53:14.012Z,1.40
2018-06-29T00:55:41.054Z,1.70
2018-06-29T00:58:08.108Z,2.05
2018-06-29T01:00:35.143Z,2.08
2018-06-29T01:03:02.276Z,1.70
2018-06-29T01:05:29.326Z,1.20
2018-06-29T01:07:56.374Z,1.80
2018-06-29T01:10:23.411Z,2.00
2018-06-29T01:12:50.452Z,1.32
2018-06-29T01:15:17.484Z,1.67
2018-06-29T01:17:44.532Z,1.75
2018-06-29T01:20:11.566Z,1.20
2018-06-29T01:22:38.658Z,1.82
2018-06-29T01:25:05.683Z,1.95
2018-06-29T01:27:32.724Z,2.20
2018-06-29T01:29:59.779Z,1.37
2018-06-29T01:32:26.866Z,1.50
2018-06-29T01:34:53.910Z,0.95
2018-06-29T01:37:21.636Z,1.62
2018-06-29T01:39:48.728Z,1.55
2018-06-29T01:42:15.828Z,1.60
2018-06-29T01:44:42.888Z,1.72
2018-06-29T01:47:09.942Z,2.45
2018-06-29T01:49:36.982Z,1.30
2018-06-29T01:52:04.044Z,1.50
2018-06-29T01:54:31.109Z,1.27
2018-06-29T01:56:58.147Z,1.92
2018-06-29T01:59:25.194Z,1.35
2018-06-29T02:01:52.330Z,1.12
2018-06-29T02:04:19.372Z,1.42
2018-06-29T02:06:46.407Z,1.40
2018-06-29T02:09:13.446Z,1.35
2018-06-29T02:11:40.503Z,1.22
2018-06-29T02:14:07.539Z,1.20
2018-06-29T02:16:34.580Z,1.55
2018-06-29T02:19:01.653Z,1.20
2018-06-29T02:21:28.777Z,1.55
2018-06-29T02:23:55.805Z,1.52
2018-06-29T02:26:22.850Z,1.70
2018-06-29T02:28:49.886Z,1.25
2018-06-29T02:31:17.034Z,1.00
2018-06-29T02:33:44.072Z,3.30
2018-06-29T02:36:11.118Z,1.20
2018-06-29T02:38:38.143Z,2.65
2018-06-29T02:41:05.263Z,1.70
2018-06-29T02:43:32.321Z,1.70
2018-06-29T02:45:59.379Z,1.22
2018-06-29T02:48:26.428Z,1.37
2018-06-29T02:50:53.542Z,2.33
2018-06-29T02:53:21.039Z,1.80
2018-06-29T02:55:48.068Z,1.50
2018-06-29T02:58:15.118Z,1.95
2018-06-29T03:00:42.153Z,1.65
2018-06-29T03:03:09.201Z,1.50
2018-06-29T03:05:36.252Z,1.57
2018-06-29T03:08:03.287Z,1.40
2018-06-29T03:10:30.353Z,1.30
2018-06-29T03:12:57.480Z,1.30
2018-06-29T03:15:24.537Z,1.55
2018-06-29T03:17:51.585Z,1.30
2018-06-29T03:20:18.632Z,1.20
2018-06-29T03:22:45.770Z,1.62
2018-06-29T03:25:12.866Z,1.60
2018-06-29T03:27:39.936Z,1.85
2018-06-29T03:30:06.972Z,1.85
2018-06-29T03:32:34.060Z,1.77
2018-06-29T03:35:01.094Z,2.02
2018-06-29T03:37:28.139Z,1.35
2018-06-29T03:39:55.205Z,1.75
2018-06-29T03:42:22.324Z,1.70
2018-06-29T03:44:49.378Z,1.72
2018-06-29T03:47:16.439Z,2.08
2018-06-29T03:49:43.482Z,1.52
2018-06-29T03:52:10.732Z,1.72
2018-06-29T03:54:38.371Z,1.67
2018-06-29T03:57:05.404Z,1.30
2018-06-29T03:59:32.436Z,1.52
2018-06-29T04:01:59.534Z,2.70
2018-06-29T04:04:26.574Z,1.65
2018-06-29T04:06:53.643Z,1.77
2018-06-29T04:09:21.195Z,2.10
2018-06-29T04:11:48.371Z,1.77
2018-06-29T04:14:15.394Z,1.82
2018-06-29T04:16:42.449Z,1.52
2018-06-29T04:19:09.480Z,2.08
2018-06-29T04:21:36.641Z,1.72
2018-06-29T04:24:03.793Z,1.50
2018-06-29T04:26:31.309Z,1.50
2018-06-29T04:28:58.362Z,2.45
2018-06-29T04:31:25.514Z,1.65
2018-06-29T04:33:52.605Z,2.83
2018-06-29T04:36:19.625Z,1.70
2018-06-29T04:38:46.718Z,2.98
2018-06-29T04:41:13.786Z,1.40
2018-06-29T04:43:40.827Z,2.40
2018-06-29T04:46:07.868Z,1.75
2018-06-29T04:48:34.980Z,2.62
2018-06-29T04:51:02.123Z,1.25
2018-06-29T04:53:29.155Z,1.42
2018-06-29T04:55:56.189Z,1.75
2018-06-29T04:58:23.263Z,2.15
2018-06-29T05:00:50.870Z,1.40
2018-06-29T05:03:17.897Z,2.30
2018-06-29T05:05:44.962Z,2.25
2018-06-29T05:08:12.023Z,1.30
2018-06-29T05:10:39.065Z,1.62
2018-06-29T05:13:06.115Z,2.20
2018-06-29T05:15:33.201Z,1.62
2018-06-29T05:18:00.197Z,1.95
2018-06-29T05:20:27.240Z,1.87
2018-06-29T05:22:54.309Z,1.30
2018-06-29T05:25:21.356Z,1.47
2018-06-29T05:27:48.490Z,2.00
2018-06-29T05:30:15.526Z,1.95
2018-06-29T05:32:42.575Z,2.12
2018-06-29T05:35:09.660Z,1.80
2018-06-29T05:37:36.700Z,1.80
2018-06-29T05:40:03.789Z,1.70
2018-06-29T05:42:30.882Z,1.77
2018-06-29T05:44:58.025Z,1.50
2018-06-29T05:47:25.074Z,2.55
2018-06-29T05:49:52.132Z,3.10
2018-06-29T05:52:19.251Z,1.95
2018-06-29T05:54:46.342Z,2.12
2018-06-29T05:57:13.372Z,1.62
2018-06-29T05:59:40.389Z,1.90
2018-06-29T06:02:07.624Z,2.75
2018-06-29T06:04:34.656Z,1.52
2018-06-29T06:07:01.669Z,2.10
2018-06-29T06:09:28.887Z,1.70
2018-06-29T06:11:56.017Z,2.25
2018-06-29T06:14:23.062Z,1.85
2018-06-29T06:16:50.111Z,1.82
2018-06-29T06:19:22.810Z,2.33
2018-06-29T06:21:49.995Z,2.10
2018-06-29T06:24:17.247Z,1.90
2018-06-29T06:26:45.206Z,1.87
2018-06-29T06:29:12.244Z,2.52
2018-06-29T06:31:39.371Z,2.30
2018-06-29T06:34:06.406Z,2.98
2018-06-29T06:36:33.641Z,2.50
2018-06-29T06:39:00.678Z,1.35
2018-06-29T06:41:28.034Z,1.82
2018-06-29T06:43:55.113Z,2.92
2018-06-29T06:46:22.220Z,2.83
2018-06-29T06:48:49.322Z,2.95
2018-06-29T06:51:16.441Z,2.80
2018-06-29T06:53:43.551Z,3.05
2018-06-29T06:56:10.556Z,2.42
2018-06-29T06:58:37.619Z,2.72
2018-06-29T07:01:04.951Z,3.20
2018-06-29T07:03:32.018Z,2.67
2018-06-29T07:05:59.065Z,1.90
2018-06-29T07:08:26.107Z,2.90
2018-06-29T07:10:53.285Z,4.87
2018-06-29T07:13:20.876Z,2.40
2018-06-29T07:15:47.904Z,2.15
2018-06-29T07:18:15.016Z,1.90
2018-06-29T07:20:42.088Z,2.35
2018-06-29T07:23:09.120Z,1.50
2018-06-29T07:25:37.033Z,2.30
2018-06-29T07:28:04.089Z,2.47
2018-06-29T07:30:31.140Z,1.65
2018-06-29T07:32:58.299Z,1.95
2018-06-29T07:35:25.353Z,3.47
2018-06-29T07:37:52.415Z,2.35
2018-06-29T07:40:19.466Z,3.25
2018-06-29T07:42:46.576Z,2.22
2018-06-29T07:45:14.676Z,2.92
2018-06-29T07:47:41.680Z,3.77
2018-06-29T07:50:08.776Z,4.33
2018-06-29T07:52:35.882Z,3.08
2018-06-29T07:55:04.836Z,2.58
2018-06-29T07:57:31.897Z,2.35
2018-06-29T07:59:58.933Z,3.37
2018-06-29T08:02:26.014Z,2.50
2018-06-29T08:04:53.381Z,3.45
2018-06-29T08:07:22.964Z,2.45
2018-06-29T08:09:50.018Z,3.15
2018-06-29T08:12:17.192Z,2.95
2018-06-29T08:14:44.228Z,2.95
2018-06-29T08:17:11.303Z,2.55
2018-06-29T08:19:38.375Z,3.50
2018-06-29T08:22:05.785Z,3.05
2018-06-29T08:24:32.841Z,3.00
2018-06-29T08:26:59.868Z,3.45
2018-06-29T08:29:26.926Z,3.20
2018-06-29T08:31:54.084Z,3.47
2018-06-29T08:34:21.128Z,3.10
2018-06-29T08:36:48.171Z,3.35
2018-06-29T08:39:15.225Z,3.50
2018-06-29T08:41:42.323Z,3.00
2018-06-29T08:44:09.400Z,3.70
2018-06-29T08:46:36.468Z,3.98
2018-06-29T08:49:03.486Z,3.80
2018-06-29T08:51:30.619Z,2.90
2018-06-29T08:53:57.672Z,3.15
2018-06-29T08:56:24.704Z,2.83
2018-06-29T08:58:51.782Z,2.92
2018-06-29T09:01:18.924Z,2.67
2018-06-29T09:03:46.292Z,2.17
2018-06-29T09:06:13.360Z,3.47
2018-06-29T09:08:40.415Z,2.25
2018-06-29T09:11:07.530Z,3.12
2018-06-29T09:13:34.572Z,3.45
2018-06-29T09:16:01.851Z,2.87
2018-06-29T09:18:28.884Z,2.45
2018-06-29T09:20:55.986Z,3.15
2018-06-29T09:23:23.048Z,2.80
2018-06-29T09:25:50.095Z,3.00
2018-06-29T09:28:17.145Z,2.65
2018-06-29T09:30:44.174Z,2.30
2018-06-29T09:33:11.222Z,2.85
2018-06-29T09:35:38.270Z,2.77
2018-06-29T09:38:05.359Z,2.05
2018-06-29T09:40:33.764Z,2.22
2018-06-29T09:43:00.836Z,2.72
2018-06-29T09:45:28.498Z,2.22
2018-06-29T09:47:55.636Z,2.72
2018-06-29T09:50:22.631Z,2.58
2018-06-29T09:52:49.756Z,2.42
2018-06-29T09:55:16.800Z,2.20
2018-06-29T09:57:43.915Z,2.58
2018-06-29T10:00:15.360Z,2.55
2018-06-29T10:02:42.758Z,2.45
2018-06-29T10:05:09.814Z,2.02
2018-06-29T10:07:36.943Z,2.60
2018-06-29T10:10:04.080Z,1.45
2018-06-29T10:12:31.214Z,2.05
2018-06-29T10:14:58.262Z,2.50
2018-06-29T10:17:25.535Z,2.30
2018-06-29T10:19:52.717Z,2.70
2018-06-29T10:22:19.842Z,1.92
2018-06-29T10:24:46.836Z,2.98
2018-06-29T10:27:13.899Z,3.22
2018-06-29T10:29:40.975Z,2.67
2018-06-29T10:32:08.100Z,1.95
2018-06-29T10:34:35.438Z,2.05
2018-06-29T10:37:02.478Z,2.00
2018-06-29T10:39:29.519Z,2.42
2018-06-29T10:41:56.638Z,2.33
2018-06-29T10:44:24.524Z,1.90
2018-06-29T10:46:51.567Z,2.42
2018-06-29T10:49:18.606Z,2.00
2018-06-29T10:51:45.684Z,2.02
2018-06-29T10:54:12.724Z,1.75
2018-06-29T10:56:39.786Z,3.58
2018-06-29T10:59:06.839Z,1.50
2018-06-29T11:01:33.972Z,2.30
2018-06-29T11:04:01.034Z,2.80
2018-06-29T11:06:28.090Z,1.47
2018-06-29T11:08:55.124Z,2.30
2018-06-29T11:11:22.284Z,1.30
2018-06-29T11:13:49.316Z,1.72
2018-06-29T11:16:16.347Z,2.30
2018-06-29T11:18:43.383Z,2.00
2018-06-29T11:21:10.478Z,2.22
2018-06-29T11:23:37.530Z,2.45
2018-06-29T11:26:04.590Z,2.50
2018-06-29T11:28:39.178Z,2.42
2018-06-29T11:31:06.329Z,2.75
2018-06-29T11:33:33.435Z,1.20
2018-06-29T11:36:00.529Z,1.62
2018-06-29T11:38:27.567Z,2.40
2018-06-29T11:40:55.051Z,1.67
2018-06-29T11:43:22.132Z,2.22
2018-06-29T11:45:49.173Z,3.22
2018-06-29T11:48:16.224Z,2.55
2018-06-29T11:50:43.264Z,1.98
2018-06-29T11:53:10.339Z,2.15
2018-06-29T11:55:39.171Z,2.55
2018-06-29T11:58:06.243Z,2.92
2018-06-29T12:00:33.325Z,2.33
2018-06-29T12:03:00.384Z,2.87
2018-06-29T12:05:27.412Z,1.85
2018-06-29T12:07:54.764Z,2.40
2018-06-29T12:10:21.810Z,1.60
2018-06-29T12:12:48.910Z,1.57
2018-06-29T12:15:15.940Z,3.08
2018-06-29T12:17:43.060Z,1.95
2018-06-29T12:20:10.238Z,1.87
2018-06-29T12:22:37.355Z,2.00
2018-06-29T12:25:04.406Z,1.95
2018-06-29T12:27:32.094Z,2.00
2018-06-29T12:29:59.252Z,2.20
2018-06-29T12:32:26.537Z,2.58
2018-06-29T12:34:53.585Z,2.15
2018-06-29T12:37:21.138Z,2.17
2018-06-29T12:39:48.223Z,2.35
2018-06-29T12:42:15.479Z,2.83
2018-06-29T12:44:42.620Z,2.08
2018-06-29T12:47:09.691Z,1.75
2018-06-29T12:49:37.141Z,2.05
2018-06-29T12:52:04.286Z,1.75
2018-06-29T12:54:31.328Z,2.80
2018-06-29T12:56:58.429Z,1.45
2018-06-29T12:59:25.735Z,2.55
2018-06-29T13:01:52.866Z,1.67
2018-06-29T13:04:19.909Z,2.33
2018-06-29T13:06:46.992Z,1.77
2018-06-29T13:09:14.043Z,2.05
2018-06-29T13:11:41.182Z,1.98
2018-06-29T13:14:08.245Z,2.17
2018-06-29T13:16:35.623Z,2.37
2018-06-29T13:19:02.793Z,2.52
2018-06-29T13:21:30.024Z,2.40
2018-06-29T13:23:57.059Z,2.10
2018-06-29T13:26:24.092Z,2.00
2018-06-29T13:28:51.179Z,1.80
2018-06-29T13:31:18.256Z,2.20
2018-06-29T13:33:45.459Z,2.92
2018-06-29T13:36:12.538Z,2.47
2018-06-29T13:38:39.556Z,2.02
2018-06-29T13:41:06.628Z,1.85
2018-06-29T13:43:33.677Z,2.45
2018-06-29T13:46:00.726Z,2.35
2018-06-29T13:48:27.782Z,1.80
2018-06-29T13:50:54.896Z,2.58
2018-06-29T13:53:22.782Z,2.55
2018-06-29T13:55:49.817Z,2.15
2018-06-29T13:58:16.990Z,2.80
2018-06-29T14:00:44.428Z,2.15
2018-06-29T14:03:12.195Z,1.70
2018-06-29T14:05:39.310Z,2.58
2018-06-29T14:08:06.376Z,2.42
2018-06-29T14:10:33.439Z,2.10
2018-06-29T14:13:00.594Z,2.20
2018-06-29T14:15:27.678Z,3.00
2018-06-29T14:17:54.749Z,2.45
2018-06-29T14:20:21.800Z,2.92
2018-06-29T14:22:48.911Z,1.87
2018-06-29T14:25:15.967Z,2.42
2018-06-29T14:27:43.024Z,3.33
2018-06-29T14:30:10.138Z,2.95
2018-06-29T14:32:37.240Z,4.62
2018-06-29T14:35:04.388Z,3.52
2018-06-29T14:37:31.459Z,3.35
2018-06-29T14:39:58.505Z,2.90
2018-06-29T14:42:25.635Z,3.22
2018-06-29T14:44:52.690Z,3.75
2018-06-29T14:47:19.812Z,3.87
2018-06-29T14:49:46.856Z,3.77
2018-06-29T14:52:13.946Z,3.90
2018-06-29T14:54:40.994Z,3.40
2018-06-29T14:57:08.039Z,3.50
2018-06-29T14:59:35.088Z,3.30
2018-06-29T15:02:02.191Z,4.20
2018-06-29T15:04:29.246Z,4.15
2018-06-29T15:06:56.295Z,3.62
2018-06-29T15:09:23.421Z,4.30
2018-06-29T15:11:50.492Z,3.75
2018-06-29T15:14:17.875Z,4.65
2018-06-29T15:16:44.934Z,4.42
2018-06-29T15:19:11.984Z,3.77
2018-06-29T15:21:39.159Z,3.92
2018-06-29T15:24:06.286Z,4.22
2018-06-29T15:26:33.415Z,3.52
2018-06-29T15:29:00.451Z,4.95
2018-06-29T15:31:27.566Z,4.70
2018-06-29T15:33:54.607Z,5.03
2018-06-29T15:36:21.674Z,3.83
2018-06-29T15:38:48.725Z,6.42
2018-06-29T15:41:15.849Z,7.05
2018-06-29T15:43:42.921Z,7.58
2018-06-29T15:46:10.048Z,4.50
2018-06-29T15:48:37.114Z,4.47
2018-06-29T15:51:04.267Z,5.70
2018-06-29T15:53:31.320Z,5.10
2018-06-29T15:55:58.398Z,5.30
2018-06-29T15:58:25.471Z,4.03
2018-06-29T16:00:52.553Z,4.60
2018-06-29T16:03:19.579Z,4.03
2018-06-29T16:05:47.123Z,4.45
2018-06-29T16:08:14.181Z,3.80
2018-06-29T16:10:41.240Z,3.80
2018-06-29T16:13:08.373Z,3.12
2018-06-29T16:15:35.510Z,4.03
2018-06-29T16:18:02.524Z,4.17
2018-06-29T16:20:29.650Z,3.70
2018-06-29T16:22:56.786Z,4.58
2018-06-29T16:25:23.843Z,5.00
2018-06-29T16:27:50.889Z,4.25
2018-06-29T16:30:17.937Z,4.37
2018-06-29T16:32:45.046Z,3.50
2018-06-29T16:35:12.084Z,3.85
2018-06-29T16:37:39.174Z,4.00
2018-06-29T16:40:06.221Z,3.15
2018-06-29T16:42:33.324Z,3.77
2018-06-29T16:45:00.492Z,4.83
2018-06-29T16:47:27.527Z,3.80
2018-06-29T16:49:54.575Z,4.95
2018-06-29T16:52:22.357Z,4.40
2018-06-29T16:54:50.358Z,3.70
2018-06-29T16:57:18.189Z,4.83
2018-06-29T16:59:45.321Z,4.00
2018-06-29T17:02:12.399Z,3.55
2018-06-29T17:04:39.588Z,4.25
2018-06-29T17:07:06.670Z,4.33
2018-06-29T17:09:33.742Z,4.20
2018-06-29T17:12:00.872Z,4.35
2018-06-29T17:14:28.033Z,3.62
2018-06-29T17:16:55.131Z,4.67
2018-06-29T17:19:22.224Z,4.40
2018-06-29T17:21:49.511Z,5.03
2018-06-29T17:24:16.556Z,3.35
2018-06-29T17:26:43.950Z,3.70
2018-06-29T17:29:11.215Z,4.08
2018-06-29T17:31:38.363Z,4.20
2018-06-29T17:34:05.968Z,4.35
2018-06-29T17:36:33.273Z,5.58
2018-06-29T17:39:00.310Z,5.17
2018-06-29T17:41:27.697Z,3.80
2018-06-29T17:43:54.758Z,3.92
2018-06-29T17:46:23.206Z,2.87
2018-06-29T17:48:50.323Z,4.58
2018-06-29T17:51:17.376Z,4.95
2018-06-29T17:53:44.509Z,4.70
2018-06-29T17:56:11.535Z,4.25
2018-06-29T17:58:38.598Z,4.62
2018-06-29T18:01:05.919Z,5.50
2018-06-29T18:03:32.991Z,5.00
2018-06-29T18:06:00.055Z,4.17
2018-06-29T18:08:27.186Z,2.90
2018-06-29T18:10:54.268Z,3.87
2018-06-29T18:13:21.454Z,4.95
2018-06-29T18:15:48.490Z,4.30
2018-06-29T18:18:15.546Z,4.45
2018-06-29T18:20:42.602Z,3.65
2018-06-29T18:23:09.720Z,4.22
2018-06-29T18:25:36.775Z,4.42
2018-06-29T18:28:03.918Z,3.75
2018-06-29T18:30:30.986Z,4.60
2018-06-29T18:32:58.107Z,3.10
2018-06-29T18:35:25.226Z,3.95
2018-06-29T18:37:52.711Z,4.40
2018-06-29T18:40:19.796Z,3.50
2018-06-29T18:42:47.032Z,5.00
2018-06-29T18:45:14.085Z,3.85
2018-06-29T18:47:41.135Z,5.62
2018-06-29T18:50:08.201Z,4.47
2018-06-29T18:52:35.308Z,4.75
2018-06-29T18:55:02.366Z,4.70
2018-06-29T18:57:29.419Z,3.27
2018-06-29T18:59:56.467Z,4.70
2018-06-29T19:02:23.564Z,4.05
2018-06-29T19:04:50.627Z,4.50
2018-06-29T19:07:17.762Z,4.95
2018-06-29T19:09:44.938Z,6.58
2018-06-29T19:12:12.058Z,2.92
2018-06-29T19:14:39.131Z,6.47
2018-06-29T19:17:06.184Z,6.17
2018-06-29T19:19:33.697Z,4.90
2018-06-29T19:22:01.207Z,5.42
2018-06-29T19:24:28.324Z,5.35
2018-06-29T19:26:55.376Z,5.00
2018-06-29T19:29:22.604Z,5.75
2018-06-29T19:31:49.746Z,6.10
2018-06-29T19:34:16.823Z,4.92
2018-06-29T19:36:43.875Z,6.22
2018-06-29T19:39:11.596Z,5.72
2018-06-29T19:41:39.795Z,6.95
2018-06-29T19:44:07.017Z,5.05
2018-06-29T19:46:34.094Z,4.30
2018-06-29T19:49:01.184Z,6.47
2018-06-29T19:51:28.363Z,6.50
2018-06-29T19:53:55.502Z,5.33
2018-06-29T19:56:22.579Z,6.47
2018-06-29T19:58:49.709Z,6.58
2018-06-29T20:01:16.770Z,6.42
2018-06-29T20:03:43.801Z,6.40
2018-06-29T20:06:10.859Z,6.22
2018-06-29T20:08:38.030Z,4.25
2018-06-29T20:11:05.201Z,6.05
2018-06-29T20:13:32.321Z,5.33
2018-06-29T20:15:59.366Z,7.00
2018-06-29T20:18:26.436Z,8.33
2018-06-29T20:20:53.556Z,4.97
2018-06-29T20:23:21.518Z,6.40
2018-06-29T20:25:49.861Z,5.20
2018-06-29T20:28:16.928Z,6.28
2018-06-29T20:30:43.983Z,7.78
2018-06-29T20:33:11.125Z,5.83
2018-06-29T20:35:38.107Z,5.80
2018-06-29T20:38:05.253Z,6.67
2018-06-29T20:40:32.240Z,9.50
2018-06-29T20:42:59.328Z,7.17
2018-06-29T20:45:26.459Z,6.95
2018-06-29T20:47:53.525Z,8.68
2018-06-29T20:50:20.615Z,6.95
2018-06-29T20:52:47.726Z,6.40
2018-06-29T20:55:14.870Z,6.50
2018-06-29T20:57:41.941Z,5.87
2018-06-29T21:00:09.053Z,6.10
2018-06-29T21:02:36.220Z,5.55
2018-06-29T21:05:03.312Z,6.67
2018-06-29T21:07:30.360Z,6.35
2018-06-29T21:09:57.419Z,5.20
2018-06-29T21:12:24.554Z,6.42
2018-06-29T21:14:51.615Z,5.97
2018-06-29T21:17:18.690Z,6.40
2018-06-29T21:19:45.756Z,5.20
2018-06-29T21:22:12.898Z,7.45
2018-06-29T21:24:39.957Z,5.47
2018-06-29T21:27:07.056Z,4.95
2018-06-29T21:29:34.110Z,6.10
2018-06-29T21:32:01.278Z,5.20
2018-06-29T21:34:28.409Z,4.60
2018-06-29T21:36:55.470Z,5.60
2018-06-29T21:39:22.516Z,5.15
2018-06-29T21:41:49.661Z,5.47
2018-06-29T21:44:16.683Z,5.78
2018-06-29T21:46:43.737Z,4.97
2018-06-29T21:49:10.800Z,4.58
2018-06-29T21:51:37.930Z,4.58
2018-06-29T21:54:05.039Z,4.55
2018-06-29T21:56:32.110Z,4.20
2018-06-29T21:58:59.144Z,5.55
2018-06-29T22:01:26.217Z,5.65
2018-06-29T22:03:53.281Z,5.92
2018-06-29T22:06:20.327Z,5.83
2018-06-29T22:08:47.370Z,4.08
2018-06-29T22:11:14.550Z,4.15
2018-06-29T22:13:41.602Z,6.47
2018-06-29T22:16:08.654Z,4.50
2018-06-29T22:18:35.732Z,5.30
2018-06-29T22:21:02.824Z,4.12
2018-06-29T22:23:29.924Z,4.72
2018-06-29T22:25:57.007Z,4.65
2018-06-29T22:28:24.056Z,4.25
2018-06-29T22:30:51.110Z,5.42
2018-06-29T22:33:18.139Z,4.50
2018-06-29T22:35:45.182Z,3.62
2018-06-29T22:38:12.207Z,4.80
2018-06-29T22:40:39.253Z,4.45
2018-06-29T22:43:06.302Z,3.52
2018-06-29T22:45:33.410Z,5.22
2018-06-29T22:48:00.450Z,5.33
2018-06-29T22:50:27.496Z,3.47
2018-06-29T22:52:55.091Z,3.33
2018-06-29T22:55:22.124Z,3.60
2018-06-29T22:57:49.168Z,4.80
2018-06-29T23:00:16.223Z,3.45
2018-06-29T23:02:43.303Z,3.37
2018-06-29T23:05:10.332Z,3.98
2018-06-29T23:07:37.379Z,3.85
2018-06-29T23:10:04.711Z,4.55
2018-06-29T23:12:32.048Z,4.00
2018-06-29T23:14:59.097Z,3.58
2018-06-29T23:17:26.128Z,5.28
2018-06-29T23:19:59.785Z,4.62
2018-06-29T23:22:26.912Z,4.12
2018-06-29T23:24:53.947Z,3.60
2018-06-29T23:27:21.048Z,3.67
2018-06-29T23:29:48.211Z,4.80
2018-06-29T23:32:15.344Z,3.90
2018-06-29T23:34:42.454Z,4.22
2018-06-29T23:37:09.515Z,3.92
2018-06-29T23:39:36.560Z,2.98
2018-06-29T23:42:03.621Z,4.45
2018-06-29T23:44:30.650Z,3.72
2018-06-29T23:46:57.699Z,5.17
2018-06-29T23:49:24.751Z,4.10
2018-06-29T23:51:51.887Z,3.62
2018-06-29T23:54:18.930Z,3.98
2018-06-29T23:56:45.971Z,3.40
2018-06-29T23:59:13.059Z,4.60
